sensor_id;sensor_type;location;lat;lon;timestamp;P1;durP1;ratioP1;P2;durP2;ratioP2
13743;SDS011;6943;52.368;9.966;2023-02-11T00:01:35;44.87;;;29.80;;
13743;SDS011;6943;52.368;9.966;2023-02-11T00:04:01;40.57;;;27.17;;
13743;SDS011;6943;52.368;9.966;2023-02-11T00:06:28;43.80;;;27.57;;
13743;SDS011;6943;52.368;9.966;2023-02-11T00:08:55;47.67;;;29.50;;
13743;SDS011;6943;52.368;9.966;2023-02-11T00:11:21;46.03;;;29.33;;
13743;SDS011;6943;52.368;9.966;2023-02-11T00:13:50;43.40;;;29.30;;
13743;SDS011;6943;52.368;9.966;2023-02-11T00:16:17;42.17;;;28.83;;
13743;SDS011;6943;52.368;9.966;2023-02-11T00:18:44;47.07;;;29.67;;
13743;SDS011;6943;52.368;9.966;2023-02-11T00:21:11;46.10;;;30.17;;
13743;SDS011;6943;52.368;9.966;2023-02-11T00:23:38;50.40;;;29.27;;
13743;SDS011;6943;52.368;9.966;2023-02-11T00:26:04;46.73;;;30.50;;
13743;SDS011;6943;52.368;9.966;2023-02-11T00:28:36;42.10;;;28.40;;
13743;SDS011;6943;52.368;9.966;2023-02-11T00:31:01;46.67;;;30.10;;
13743;SDS011;6943;52.368;9.966;2023-02-11T00:33:27;43.60;;;29.23;;
13743;SDS011;6943;52.368;9.966;2023-02-11T00:35:52;46.53;;;30.90;;
13743;SDS011;6943;52.368;9.966;2023-02-11T00:38:18;48.17;;;31.00;;
13743;SDS011;6943;52.368;9.966;2023-02-11T00:40:43;49.67;;;30.43;;
13743;SDS011;6943;52.368;9.966;2023-02-11T00:43:09;48.87;;;29.73;;
13743;SDS011;6943;52.368;9.966;2023-02-11T00:45:34;47.40;;;30.33;;
13743;SDS011;6943;52.368;9.966;2023-02-11T00:48:00;50.10;;;31.70;;
13743;SDS011;6943;52.368;9.966;2023-02-11T00:50:25;49.13;;;30.73;;
13743;SDS011;6943;52.368;9.966;2023-02-11T00:52:50;45.17;;;30.37;;
13743;SDS011;6943;52.368;9.966;2023-02-11T00:55:16;49.43;;;30.97;;
13743;SDS011;6943;52.368;9.966;2023-02-11T00:57:42;46.17;;;30.40;;
13743;SDS011;6943;52.368;9.966;2023-02-11T01:00:08;47.13;;;30.80;;
13743;SDS011;6943;52.368;9.966;2023-02-11T01:02:35;49.43;;;31.30;;
13743;SDS011;6943;52.368;9.966;2023-02-11T01:05:01;46.87;;;30.23;;
13743;SDS011;6943;52.368;9.966;2023-02-11T01:07:27;52.47;;;30.83;;
13743;SDS011;6943;52.368;9.966;2023-02-11T01:09:52;55.43;;;32.27;;
13743;SDS011;6943;52.368;9.966;2023-02-11T01:12:18;47.33;;;31.10;;
13743;SDS011;6943;52.368;9.966;2023-02-11T01:14:44;53.60;;;31.83;;
13743;SDS011;6943;52.368;9.966;2023-02-11T01:17:09;53.37;;;33.33;;
13743;SDS011;6943;52.368;9.966;2023-02-11T01:19:35;49.53;;;31.40;;
13743;SDS011;6943;52.368;9.966;2023-02-11T01:22:02;52.47;;;33.47;;
13743;SDS011;6943;52.368;9.966;2023-02-11T01:24:28;50.33;;;32.90;;
13743;SDS011;6943;52.368;9.966;2023-02-11T01:26:53;50.67;;;33.43;;
13743;SDS011;6943;52.368;9.966;2023-02-11T01:29:19;51.57;;;31.97;;
13743;SDS011;6943;52.368;9.966;2023-02-11T01:31:44;54.53;;;33.40;;
13743;SDS011;6943;52.368;9.966;2023-02-11T01:34:10;54.80;;;32.43;;
13743;SDS011;6943;52.368;9.966;2023-02-11T01:36:36;54.90;;;33.20;;
13743;SDS011;6943;52.368;9.966;2023-02-11T01:39:01;52.43;;;34.33;;
13743;SDS011;6943;52.368;9.966;2023-02-11T01:41:27;52.17;;;32.93;;
13743;SDS011;6943;52.368;9.966;2023-02-11T01:43:53;53.60;;;33.57;;
13743;SDS011;6943;52.368;9.966;2023-02-11T01:46:29;53.30;;;33.53;;
13743;SDS011;6943;52.368;9.966;2023-02-11T01:49:03;56.93;;;35.33;;
13743;SDS011;6943;52.368;9.966;2023-02-11T01:54:07;53.13;;;33.90;;
13743;SDS011;6943;52.368;9.966;2023-02-11T01:56:55;56.80;;;35.67;;
13743;SDS011;6943;52.368;9.966;2023-02-11T01:59:51;49.83;;;32.37;;
13743;SDS011;6943;52.368;9.966;2023-02-11T02:02:48;52.60;;;34.53;;
13743;SDS011;6943;52.368;9.966;2023-02-11T02:08:04;55.50;;;35.27;;
13743;SDS011;6943;52.368;9.966;2023-02-11T02:10:39;59.87;;;36.50;;
13743;SDS011;6943;52.368;9.966;2023-02-11T02:13:07;59.33;;;36.23;;
13743;SDS011;6943;52.368;9.966;2023-02-11T02:15:34;59.77;;;36.23;;
13743;SDS011;6943;52.368;9.966;2023-02-11T02:18:08;61.53;;;37.93;;
13743;SDS011;6943;52.368;9.966;2023-02-11T02:20:45;62.10;;;36.70;;
13743;SDS011;6943;52.368;9.966;2023-02-11T02:23:30;63.30;;;37.47;;
13743;SDS011;6943;52.368;9.966;2023-02-11T02:29:29;58.73;;;36.13;;
13743;SDS011;6943;52.368;9.966;2023-02-11T02:37:50;59.53;;;37.47;;
13743;SDS011;6943;52.368;9.966;2023-02-11T02:43:08;57.83;;;36.73;;
13743;SDS011;6943;52.368;9.966;2023-02-11T02:45:35;58.30;;;36.83;;
13743;SDS011;6943;52.368;9.966;2023-02-11T02:48:01;55.53;;;35.10;;
13743;SDS011;6943;52.368;9.966;2023-02-11T02:50:30;59.40;;;36.43;;
13743;SDS011;6943;52.368;9.966;2023-02-11T02:53:11;54.30;;;35.87;;
13743;SDS011;6943;52.368;9.966;2023-02-11T02:58:38;59.77;;;35.43;;
13743;SDS011;6943;52.368;9.966;2023-02-11T03:01:42;58.73;;;35.83;;
13743;SDS011;6943;52.368;9.966;2023-02-11T03:04:28;53.00;;;34.83;;
13743;SDS011;6943;52.368;9.966;2023-02-11T03:07:12;54.50;;;35.60;;
13743;SDS011;6943;52.368;9.966;2023-02-11T03:10:52;57.93;;;34.80;;
13743;SDS011;6943;52.368;9.966;2023-02-11T03:12:49;55.77;;;35.13;;
13743;SDS011;6943;52.368;9.966;2023-02-11T03:15:16;63.43;;;35.17;;
13743;SDS011;6943;52.368;9.966;2023-02-11T03:17:45;54.23;;;33.17;;
13743;SDS011;6943;52.368;9.966;2023-02-11T03:20:14;58.30;;;36.43;;
13743;SDS011;6943;52.368;9.966;2023-02-11T03:22:45;57.57;;;34.67;;
13743;SDS011;6943;52.368;9.966;2023-02-11T03:25:24;58.53;;;35.10;;
13743;SDS011;6943;52.368;9.966;2023-02-11T03:30:46;60.70;;;34.07;;
13743;SDS011;6943;52.368;9.966;2023-02-11T03:33:23;58.93;;;34.57;;
13743;SDS011;6943;52.368;9.966;2023-02-11T03:35:59;56.73;;;34.30;;
13743;SDS011;6943;52.368;9.966;2023-02-11T03:38:33;53.83;;;34.53;;
13743;SDS011;6943;52.368;9.966;2023-02-11T03:41:01;56.57;;;35.00;;
13743;SDS011;6943;52.368;9.966;2023-02-11T03:43:32;52.60;;;33.27;;
13743;SDS011;6943;52.368;9.966;2023-02-11T03:46:02;57.93;;;34.03;;
13743;SDS011;6943;52.368;9.966;2023-02-11T03:48:32;60.37;;;35.53;;
13743;SDS011;6943;52.368;9.966;2023-02-11T03:51:02;52.17;;;33.20;;
13743;SDS011;6943;52.368;9.966;2023-02-11T03:53:31;49.63;;;32.87;;
13743;SDS011;6943;52.368;9.966;2023-02-11T03:55:57;54.77;;;34.00;;
13743;SDS011;6943;52.368;9.966;2023-02-11T03:58:26;51.37;;;33.27;;
13743;SDS011;6943;52.368;9.966;2023-02-11T04:00:52;54.47;;;33.53;;
13743;SDS011;6943;52.368;9.966;2023-02-11T04:03:17;55.73;;;33.07;;
13743;SDS011;6943;52.368;9.966;2023-02-11T04:05:43;54.00;;;33.73;;
13743;SDS011;6943;52.368;9.966;2023-02-11T04:08:08;53.23;;;34.53;;
13743;SDS011;6943;52.368;9.966;2023-02-11T04:10:33;53.10;;;32.73;;
13743;SDS011;6943;52.368;9.966;2023-02-11T04:12:59;53.43;;;33.87;;
13743;SDS011;6943;52.368;9.966;2023-02-11T04:15:24;52.23;;;33.17;;
13743;SDS011;6943;52.368;9.966;2023-02-11T04:17:50;48.73;;;31.53;;
13743;SDS011;6943;52.368;9.966;2023-02-11T04:20:16;54.43;;;34.00;;
13743;SDS011;6943;52.368;9.966;2023-02-11T04:22:42;52.53;;;32.97;;
13743;SDS011;6943;52.368;9.966;2023-02-11T04:25:07;50.77;;;32.57;;
13743;SDS011;6943;52.368;9.966;2023-02-11T04:27:34;55.90;;;34.33;;
13743;SDS011;6943;52.368;9.966;2023-02-11T04:30:00;56.53;;;33.30;;
13743;SDS011;6943;52.368;9.966;2023-02-11T04:32:25;50.13;;;33.13;;
13743;SDS011;6943;52.368;9.966;2023-02-11T04:34:51;51.70;;;32.47;;
13743;SDS011;6943;52.368;9.966;2023-02-11T04:37:16;54.27;;;34.47;;
13743;SDS011;6943;52.368;9.966;2023-02-11T04:39:42;58.97;;;32.90;;
13743;SDS011;6943;52.368;9.966;2023-02-11T04:42:07;53.30;;;32.77;;
13743;SDS011;6943;52.368;9.966;2023-02-11T04:44:33;56.80;;;34.87;;
13743;SDS011;6943;52.368;9.966;2023-02-11T04:46:58;54.53;;;33.20;;
13743;SDS011;6943;52.368;9.966;2023-02-11T04:49:24;55.17;;;33.83;;
13743;SDS011;6943;52.368;9.966;2023-02-11T04:51:50;51.63;;;32.40;;
13743;SDS011;6943;52.368;9.966;2023-02-11T04:54:15;54.23;;;33.10;;
13743;SDS011;6943;52.368;9.966;2023-02-11T04:56:41;56.30;;;32.93;;
13743;SDS011;6943;52.368;9.966;2023-02-11T04:59:07;54.10;;;33.30;;
13743;SDS011;6943;52.368;9.966;2023-02-11T05:01:32;53.77;;;32.50;;
13743;SDS011;6943;52.368;9.966;2023-02-11T05:03:58;51.13;;;33.40;;
13743;SDS011;6943;52.368;9.966;2023-02-11T05:06:23;46.33;;;31.57;;
13743;SDS011;6943;52.368;9.966;2023-02-11T05:08:49;55.90;;;32.00;;
13743;SDS011;6943;52.368;9.966;2023-02-11T05:11:16;52.00;;;32.57;;
13743;SDS011;6943;52.368;9.966;2023-02-11T05:13:43;46.10;;;29.77;;
13743;SDS011;6943;52.368;9.966;2023-02-11T05:16:08;47.67;;;32.10;;
13743;SDS011;6943;52.368;9.966;2023-02-11T05:18:36;52.47;;;32.27;;
13743;SDS011;6943;52.368;9.966;2023-02-11T05:21:09;47.50;;;30.77;;
13743;SDS011;6943;52.368;9.966;2023-02-11T05:23:36;47.73;;;29.70;;
13743;SDS011;6943;52.368;9.966;2023-02-11T05:26:02;46.67;;;29.63;;
13743;SDS011;6943;52.368;9.966;2023-02-11T05:28:28;41.03;;;27.13;;
13743;SDS011;6943;52.368;9.966;2023-02-11T05:30:54;40.83;;;28.60;;
13743;SDS011;6943;52.368;9.966;2023-02-11T05:33:20;43.50;;;28.13;;
13743;SDS011;6943;52.368;9.966;2023-02-11T05:35:45;47.43;;;29.67;;
13743;SDS011;6943;52.368;9.966;2023-02-11T05:38:11;41.87;;;27.77;;
13743;SDS011;6943;52.368;9.966;2023-02-11T05:40:36;37.67;;;26.60;;
13743;SDS011;6943;52.368;9.966;2023-02-11T05:43:02;40.80;;;27.50;;
13743;SDS011;6943;52.368;9.966;2023-02-11T05:45:29;39.93;;;27.30;;
13743;SDS011;6943;52.368;9.966;2023-02-11T05:47:54;39.63;;;26.87;;
13743;SDS011;6943;52.368;9.966;2023-02-11T05:50:20;41.13;;;27.57;;
13743;SDS011;6943;52.368;9.966;2023-02-11T05:52:46;38.70;;;26.80;;
13743;SDS011;6943;52.368;9.966;2023-02-11T05:55:11;38.43;;;26.57;;
13743;SDS011;6943;52.368;9.966;2023-02-11T05:57:37;41.97;;;26.67;;
13743;SDS011;6943;52.368;9.966;2023-02-11T06:00:02;40.90;;;26.10;;
13743;SDS011;6943;52.368;9.966;2023-02-11T06:02:29;38.90;;;26.40;;
13743;SDS011;6943;52.368;9.966;2023-02-11T06:04:54;36.87;;;25.10;;
13743;SDS011;6943;52.368;9.966;2023-02-11T06:07:20;36.47;;;25.53;;
13743;SDS011;6943;52.368;9.966;2023-02-11T06:09:45;35.27;;;24.60;;
13743;SDS011;6943;52.368;9.966;2023-02-11T06:12:11;37.10;;;25.97;;
13743;SDS011;6943;52.368;9.966;2023-02-11T06:14:36;42.13;;;26.87;;
13743;SDS011;6943;52.368;9.966;2023-02-11T06:17:02;39.23;;;25.97;;
13743;SDS011;6943;52.368;9.966;2023-02-11T06:19:28;41.23;;;26.73;;
13743;SDS011;6943;52.368;9.966;2023-02-11T06:21:55;40.73;;;26.83;;
13743;SDS011;6943;52.368;9.966;2023-02-11T06:24:20;38.43;;;25.70;;
13743;SDS011;6943;52.368;9.966;2023-02-11T06:26:46;37.87;;;25.23;;
13743;SDS011;6943;52.368;9.966;2023-02-11T06:29:11;35.60;;;25.83;;
13743;SDS011;6943;52.368;9.966;2023-02-11T06:31:37;42.07;;;26.73;;
13743;SDS011;6943;52.368;9.966;2023-02-11T06:34:03;37.00;;;26.23;;
13743;SDS011;6943;52.368;9.966;2023-02-11T06:36:29;40.47;;;25.50;;
13743;SDS011;6943;52.368;9.966;2023-02-11T06:38:55;38.50;;;26.63;;
13743;SDS011;6943;52.368;9.966;2023-02-11T06:41:20;40.53;;;26.13;;
13743;SDS011;6943;52.368;9.966;2023-02-11T06:43:46;41.73;;;25.37;;
13743;SDS011;6943;52.368;9.966;2023-02-11T06:46:12;38.53;;;25.13;;
13743;SDS011;6943;52.368;9.966;2023-02-11T06:48:37;39.87;;;27.30;;
13743;SDS011;6943;52.368;9.966;2023-02-11T06:51:04;38.90;;;26.23;;
13743;SDS011;6943;52.368;9.966;2023-02-11T06:53:31;39.33;;;25.93;;
13743;SDS011;6943;52.368;9.966;2023-02-11T06:56:04;40.73;;;26.30;;
13743;SDS011;6943;52.368;9.966;2023-02-11T06:58:31;36.87;;;25.97;;
13743;SDS011;6943;52.368;9.966;2023-02-11T07:00:57;42.47;;;25.53;;
13743;SDS011;6943;52.368;9.966;2023-02-11T07:03:23;38.20;;;27.03;;
13743;SDS011;6943;52.368;9.966;2023-02-11T07:05:49;37.27;;;24.70;;
13743;SDS011;6943;52.368;9.966;2023-02-11T07:08:14;42.50;;;26.57;;
13743;SDS011;6943;52.368;9.966;2023-02-11T07:10:40;40.20;;;25.63;;
13743;SDS011;6943;52.368;9.966;2023-02-11T07:13:05;42.60;;;26.63;;
13743;SDS011;6943;52.368;9.966;2023-02-11T07:15:31;40.37;;;25.43;;
13743;SDS011;6943;52.368;9.966;2023-02-11T07:17:57;41.20;;;24.93;;
13743;SDS011;6943;52.368;9.966;2023-02-11T07:20:23;37.43;;;24.83;;
13743;SDS011;6943;52.368;9.966;2023-02-11T07:22:49;36.53;;;25.37;;
13743;SDS011;6943;52.368;9.966;2023-02-11T07:25:15;38.17;;;25.87;;
13743;SDS011;6943;52.368;9.966;2023-02-11T07:27:40;38.63;;;25.83;;
13743;SDS011;6943;52.368;9.966;2023-02-11T07:30:06;42.40;;;27.20;;
13743;SDS011;6943;52.368;9.966;2023-02-11T07:32:32;37.67;;;25.77;;
13743;SDS011;6943;52.368;9.966;2023-02-11T07:34:57;38.17;;;25.23;;
13743;SDS011;6943;52.368;9.966;2023-02-11T07:37:22;42.30;;;25.20;;
13743;SDS011;6943;52.368;9.966;2023-02-11T07:39:48;40.07;;;26.33;;
13743;SDS011;6943;52.368;9.966;2023-02-11T07:42:13;43.87;;;27.03;;
13743;SDS011;6943;52.368;9.966;2023-02-11T07:44:39;38.07;;;25.90;;
13743;SDS011;6943;52.368;9.966;2023-02-11T07:47:05;42.97;;;26.50;;
13743;SDS011;6943;52.368;9.966;2023-02-11T07:49:30;38.47;;;25.93;;
13743;SDS011;6943;52.368;9.966;2023-02-11T07:51:56;39.10;;;26.10;;
13743;SDS011;6943;52.368;9.966;2023-02-11T07:54:21;35.10;;;26.80;;
13743;SDS011;6943;52.368;9.966;2023-02-11T07:56:46;37.07;;;25.43;;
13743;SDS011;6943;52.368;9.966;2023-02-11T07:59:12;35.87;;;25.77;;
13743;SDS011;6943;52.368;9.966;2023-02-11T08:01:37;33.70;;;25.63;;
13743;SDS011;6943;52.368;9.966;2023-02-11T08:04:03;37.40;;;25.47;;
13743;SDS011;6943;52.368;9.966;2023-02-11T08:06:30;35.60;;;25.00;;
13743;SDS011;6943;52.368;9.966;2023-02-11T08:08:56;40.77;;;25.90;;
13743;SDS011;6943;52.368;9.966;2023-02-11T08:11:23;37.60;;;25.60;;
13743;SDS011;6943;52.368;9.966;2023-02-11T08:13:50;34.80;;;24.10;;
13743;SDS011;6943;52.368;9.966;2023-02-11T08:16:23;35.70;;;25.13;;
13743;SDS011;6943;52.368;9.966;2023-02-11T08:18:51;38.00;;;25.63;;
13743;SDS011;6943;52.368;9.966;2023-02-11T08:21:17;34.77;;;24.97;;
13743;SDS011;6943;52.368;9.966;2023-02-11T08:23:44;35.37;;;24.40;;
13743;SDS011;6943;52.368;9.966;2023-02-11T08:26:11;35.27;;;24.47;;
13743;SDS011;6943;52.368;9.966;2023-02-11T08:28:40;37.50;;;25.33;;
13743;SDS011;6943;52.368;9.966;2023-02-11T08:31:08;40.20;;;25.07;;
13743;SDS011;6943;52.368;9.966;2023-02-11T08:33:35;33.87;;;23.50;;
13743;SDS011;6943;52.368;9.966;2023-02-11T08:36:06;35.80;;;25.00;;
13743;SDS011;6943;52.368;9.966;2023-02-11T08:38:33;32.60;;;24.70;;
13743;SDS011;6943;52.368;9.966;2023-02-11T08:40:59;35.20;;;24.43;;
13743;SDS011;6943;52.368;9.966;2023-02-11T08:43:24;36.50;;;24.47;;
13743;SDS011;6943;52.368;9.966;2023-02-11T08:45:50;35.17;;;24.87;;
13743;SDS011;6943;52.368;9.966;2023-02-11T08:48:16;34.50;;;22.80;;
13743;SDS011;6943;52.368;9.966;2023-02-11T08:50:41;37.37;;;24.43;;
13743;SDS011;6943;52.368;9.966;2023-02-11T08:53:09;37.17;;;25.00;;
13743;SDS011;6943;52.368;9.966;2023-02-11T08:55:35;38.60;;;25.10;;
13743;SDS011;6943;52.368;9.966;2023-02-11T08:58:00;35.23;;;23.63;;
13743;SDS011;6943;52.368;9.966;2023-02-11T09:00:26;41.30;;;24.13;;
13743;SDS011;6943;52.368;9.966;2023-02-11T09:02:51;33.60;;;23.23;;
13743;SDS011;6943;52.368;9.966;2023-02-11T09:05:17;37.33;;;24.03;;
13743;SDS011;6943;52.368;9.966;2023-02-11T09:07:43;34.10;;;23.40;;
13743;SDS011;6943;52.368;9.966;2023-02-11T09:10:08;41.83;;;23.73;;
13743;SDS011;6943;52.368;9.966;2023-02-11T09:12:34;38.00;;;23.53;;
13743;SDS011;6943;52.368;9.966;2023-02-11T09:14:59;35.53;;;23.50;;
13743;SDS011;6943;52.368;9.966;2023-02-11T09:17:25;34.70;;;22.30;;
13743;SDS011;6943;52.368;9.966;2023-02-11T09:19:50;35.50;;;22.23;;
13743;SDS011;6943;52.368;9.966;2023-02-11T09:22:16;34.73;;;21.57;;
13743;SDS011;6943;52.368;9.966;2023-02-11T09:24:41;28.20;;;20.23;;
13743;SDS011;6943;52.368;9.966;2023-02-11T09:27:07;29.37;;;21.07;;
13743;SDS011;6943;52.368;9.966;2023-02-11T09:29:32;34.87;;;22.10;;
13743;SDS011;6943;52.368;9.966;2023-02-11T09:31:58;31.87;;;21.43;;
13743;SDS011;6943;52.368;9.966;2023-02-11T09:34:23;31.13;;;20.77;;
13743;SDS011;6943;52.368;9.966;2023-02-11T09:36:49;33.07;;;22.20;;
13743;SDS011;6943;52.368;9.966;2023-02-11T09:39:15;31.67;;;21.30;;
13743;SDS011;6943;52.368;9.966;2023-02-11T09:44:54;51.47;;;27.13;;
13743;SDS011;6943;52.368;9.966;2023-02-11T09:47:26;34.37;;;20.97;;
13743;SDS011;6943;52.368;9.966;2023-02-11T09:50:17;30.30;;;20.27;;
13743;SDS011;6943;52.368;9.966;2023-02-11T09:52:57;31.90;;;21.83;;
13743;SDS011;6943;52.368;9.966;2023-02-11T09:55:34;31.93;;;21.43;;
13743;SDS011;6943;52.368;9.966;2023-02-11T09:58:09;31.70;;;20.67;;
13743;SDS011;6943;52.368;9.966;2023-02-11T10:00:59;32.07;;;20.83;;
13743;SDS011;6943;52.368;9.966;2023-02-11T10:12:14;36.27;;;21.83;;
13743;SDS011;6943;52.368;9.966;2023-02-11T10:14:56;34.73;;;21.53;;
13743;SDS011;6943;52.368;9.966;2023-02-11T10:20:18;28.83;;;20.10;;
13743;SDS011;6943;52.368;9.966;2023-02-11T10:22:49;32.83;;;20.77;;
13743;SDS011;6943;52.368;9.966;2023-02-11T10:25:39;31.90;;;22.20;;
13743;SDS011;6943;52.368;9.966;2023-02-11T10:28:10;27.70;;;20.23;;
13743;SDS011;6943;52.368;9.966;2023-02-11T10:30:37;27.20;;;19.30;;
13743;SDS011;6943;52.368;9.966;2023-02-11T10:33:24;29.67;;;20.57;;
13743;SDS011;6943;52.368;9.966;2023-02-11T10:35:53;30.67;;;20.83;;
13743;SDS011;6943;52.368;9.966;2023-02-11T10:38:18;32.10;;;20.40;;
13743;SDS011;6943;52.368;9.966;2023-02-11T10:40:44;28.80;;;20.03;;
13743;SDS011;6943;52.368;9.966;2023-02-11T10:43:12;28.73;;;20.87;;
13743;SDS011;6943;52.368;9.966;2023-02-11T10:45:51;29.80;;;20.60;;
13743;SDS011;6943;52.368;9.966;2023-02-11T10:51:16;36.50;;;21.47;;
13743;SDS011;6943;52.368;9.966;2023-02-11T10:56:35;27.50;;;20.20;;
13743;SDS011;6943;52.368;9.966;2023-02-11T10:59:18;29.47;;;20.57;;
13743;SDS011;6943;52.368;9.966;2023-02-11T11:01:58;27.57;;;19.43;;
13743;SDS011;6943;52.368;9.966;2023-02-11T11:04:32;27.43;;;20.87;;
13743;SDS011;6943;52.368;9.966;2023-02-11T11:09:51;33.13;;;20.80;;
13743;SDS011;6943;52.368;9.966;2023-02-11T11:14:57;30.93;;;20.53;;
13743;SDS011;6943;52.368;9.966;2023-02-11T11:17:24;30.70;;;21.10;;
13743;SDS011;6943;52.368;9.966;2023-02-11T11:19:53;27.20;;;20.07;;
13743;SDS011;6943;52.368;9.966;2023-02-11T11:22:37;31.30;;;20.03;;
13743;SDS011;6943;52.368;9.966;2023-02-11T11:25:03;32.33;;;21.83;;
13743;SDS011;6943;52.368;9.966;2023-02-11T11:27:29;29.53;;;21.23;;
13743;SDS011;6943;52.368;9.966;2023-02-11T11:29:54;29.60;;;21.87;;
13743;SDS011;6943;52.368;9.966;2023-02-11T11:32:30;35.07;;;21.77;;
13743;SDS011;6943;52.368;9.966;2023-02-11T11:35:00;33.33;;;20.73;;
13743;SDS011;6943;52.368;9.966;2023-02-11T11:37:28;29.33;;;20.70;;
13743;SDS011;6943;52.368;9.966;2023-02-11T11:39:57;31.13;;;20.93;;
13743;SDS011;6943;52.368;9.966;2023-02-11T11:42:32;29.53;;;20.73;;
13743;SDS011;6943;52.368;9.966;2023-02-11T11:45:00;30.90;;;20.33;;
13743;SDS011;6943;52.368;9.966;2023-02-11T11:47:31;30.47;;;19.20;;
13743;SDS011;6943;52.368;9.966;2023-02-11T11:50:25;32.63;;;21.00;;
13743;SDS011;6943;52.368;9.966;2023-02-11T11:52:59;31.77;;;20.80;;
13743;SDS011;6943;52.368;9.966;2023-02-11T11:55:40;38.87;;;22.50;;
13743;SDS011;6943;52.368;9.966;2023-02-11T11:58:24;29.43;;;20.63;;
13743;SDS011;6943;52.368;9.966;2023-02-11T12:06:40;27.80;;;21.47;;
13743;SDS011;6943;52.368;9.966;2023-02-11T12:20:18;28.27;;;18.63;;
13743;SDS011;6943;52.368;9.966;2023-02-11T12:23:16;26.33;;;19.30;;
13743;SDS011;6943;52.368;9.966;2023-02-11T12:31:22;28.80;;;19.97;;
13743;SDS011;6943;52.368;9.966;2023-02-11T12:39:30;30.77;;;20.47;;
13743;SDS011;6943;52.368;9.966;2023-02-11T12:42:23;28.03;;;19.67;;
13743;SDS011;6943;52.368;9.966;2023-02-11T12:45:20;31.53;;;21.40;;
13743;SDS011;6943;52.368;9.966;2023-02-11T12:50:52;30.57;;;20.87;;
13743;SDS011;6943;52.368;9.966;2023-02-11T12:58:58;29.47;;;20.17;;
13743;SDS011;6943;52.368;9.966;2023-02-11T13:01:26;30.60;;;21.43;;
13743;SDS011;6943;52.368;9.966;2023-02-11T13:04:03;29.17;;;21.63;;
13743;SDS011;6943;52.368;9.966;2023-02-11T13:06:52;35.57;;;21.17;;
13743;SDS011;6943;52.368;9.966;2023-02-11T13:09:24;31.40;;;22.53;;
13743;SDS011;6943;52.368;9.966;2023-02-11T13:11:54;35.60;;;22.50;;
13743;SDS011;6943;52.368;9.966;2023-02-11T13:14:44;34.07;;;21.33;;
13743;SDS011;6943;52.368;9.966;2023-02-11T13:17:14;32.27;;;21.43;;
13743;SDS011;6943;52.368;9.966;2023-02-11T13:19:53;34.13;;;23.10;;
13743;SDS011;6943;52.368;9.966;2023-02-11T13:22:33;32.77;;;21.97;;
13743;SDS011;6943;52.368;9.966;2023-02-11T13:30:41;32.00;;;22.27;;
13743;SDS011;6943;52.368;9.966;2023-02-11T13:35:40;35.13;;;22.40;;
13743;SDS011;6943;52.368;9.966;2023-02-11T13:38:33;34.77;;;23.10;;
13743;SDS011;6943;52.368;9.966;2023-02-11T13:41:01;30.97;;;21.37;;
13743;SDS011;6943;52.368;9.966;2023-02-11T13:43:28;30.67;;;21.80;;
13743;SDS011;6943;52.368;9.966;2023-02-11T13:46:02;32.20;;;22.93;;
13743;SDS011;6943;52.368;9.966;2023-02-11T13:48:44;32.23;;;21.87;;
13743;SDS011;6943;52.368;9.966;2023-02-11T13:51:17;32.77;;;23.70;;
13743;SDS011;6943;52.368;9.966;2023-02-11T13:53:57;30.70;;;22.30;;
13743;SDS011;6943;52.368;9.966;2023-02-11T13:56:27;34.97;;;22.83;;
13743;SDS011;6943;52.368;9.966;2023-02-11T13:58:53;31.17;;;21.40;;
13743;SDS011;6943;52.368;9.966;2023-02-11T14:04:35;30.97;;;21.87;;
13743;SDS011;6943;52.368;9.966;2023-02-11T14:07:30;37.60;;;22.93;;
13743;SDS011;6943;52.368;9.966;2023-02-11T14:13:21;33.13;;;21.63;;
13743;SDS011;6943;52.368;9.966;2023-02-11T14:16:03;29.13;;;20.90;;
13743;SDS011;6943;52.368;9.966;2023-02-11T14:32:03;28.20;;;21.90;;
13743;SDS011;6943;52.368;9.966;2023-02-11T14:37:26;30.50;;;19.77;;
13743;SDS011;6943;52.368;9.966;2023-02-11T14:40:04;28.00;;;20.07;;
13743;SDS011;6943;52.368;9.966;2023-02-11T14:42:38;28.27;;;19.23;;
13743;SDS011;6943;52.368;9.966;2023-02-11T14:45:05;28.90;;;19.60;;
13743;SDS011;6943;52.368;9.966;2023-02-11T14:47:50;31.33;;;20.77;;
13743;SDS011;6943;52.368;9.966;2023-02-11T14:50:33;34.83;;;20.83;;
13743;SDS011;6943;52.368;9.966;2023-02-11T14:53:12;33.83;;;20.50;;
13743;SDS011;6943;52.368;9.966;2023-02-11T14:55:41;30.00;;;21.13;;
13743;SDS011;6943;52.368;9.966;2023-02-11T15:00:46;28.23;;;20.33;;
13743;SDS011;6943;52.368;9.966;2023-02-11T15:03:33;31.30;;;20.87;;
13743;SDS011;6943;52.368;9.966;2023-02-11T15:06:03;29.57;;;20.23;;
13743;SDS011;6943;52.368;9.966;2023-02-11T15:08:44;32.63;;;21.27;;
13743;SDS011;6943;52.368;9.966;2023-02-11T15:11:37;29.30;;;21.70;;
13743;SDS011;6943;52.368;9.966;2023-02-11T15:14:06;32.20;;;22.40;;
13743;SDS011;6943;52.368;9.966;2023-02-11T15:16:36;32.27;;;20.80;;
13743;SDS011;6943;52.368;9.966;2023-02-11T15:19:06;32.07;;;20.83;;
13743;SDS011;6943;52.368;9.966;2023-02-11T15:21:48;32.70;;;22.13;;
13743;SDS011;6943;52.368;9.966;2023-02-11T15:24:29;32.50;;;20.87;;
13743;SDS011;6943;52.368;9.966;2023-02-11T15:29:32;29.63;;;20.63;;
13743;SDS011;6943;52.368;9.966;2023-02-11T15:32:19;32.40;;;21.80;;
13743;SDS011;6943;52.368;9.966;2023-02-11T15:34:47;36.83;;;21.07;;
13743;SDS011;6943;52.368;9.966;2023-02-11T15:37:19;30.00;;;21.23;;
13743;SDS011;6943;52.368;9.966;2023-02-11T15:39:54;37.17;;;22.13;;
13743;SDS011;6943;52.368;9.966;2023-02-11T15:42:31;36.87;;;23.03;;
13743;SDS011;6943;52.368;9.966;2023-02-11T15:45:10;35.17;;;23.10;;
13743;SDS011;6943;52.368;9.966;2023-02-11T15:47:39;32.73;;;22.23;;
13743;SDS011;6943;52.368;9.966;2023-02-11T15:50:18;33.93;;;21.30;;
13743;SDS011;6943;52.368;9.966;2023-02-11T15:52:46;33.90;;;22.77;;
13743;SDS011;6943;52.368;9.966;2023-02-11T15:55:12;31.73;;;22.37;;
13743;SDS011;6943;52.368;9.966;2023-02-11T15:57:47;34.93;;;22.60;;
13743;SDS011;6943;52.368;9.966;2023-02-11T16:00:19;36.00;;;23.40;;
13743;SDS011;6943;52.368;9.966;2023-02-11T16:02:47;36.73;;;22.70;;
13743;SDS011;6943;52.368;9.966;2023-02-11T16:05:31;34.43;;;21.80;;
13743;SDS011;6943;52.368;9.966;2023-02-11T16:08:11;35.57;;;23.43;;
13743;SDS011;6943;52.368;9.966;2023-02-11T16:10:52;38.40;;;23.83;;
13743;SDS011;6943;52.368;9.966;2023-02-11T16:13:23;37.67;;;24.97;;
13743;SDS011;6943;52.368;9.966;2023-02-11T16:15:50;35.10;;;24.37;;
13743;SDS011;6943;52.368;9.966;2023-02-11T16:18:27;37.07;;;25.30;;
13743;SDS011;6943;52.368;9.966;2023-02-11T16:21:04;41.57;;;24.13;;
13743;SDS011;6943;52.368;9.966;2023-02-11T16:23:32;32.80;;;23.13;;
13743;SDS011;6943;52.368;9.966;2023-02-11T16:26:09;39.53;;;24.83;;
13743;SDS011;6943;52.368;9.966;2023-02-11T16:29:03;36.07;;;23.80;;
13743;SDS011;6943;52.368;9.966;2023-02-11T16:31:41;37.83;;;24.23;;
13743;SDS011;6943;52.368;9.966;2023-02-11T16:34:15;39.37;;;25.97;;
13743;SDS011;6943;52.368;9.966;2023-02-11T16:36:41;38.27;;;25.83;;
13743;SDS011;6943;52.368;9.966;2023-02-11T16:39:07;40.33;;;25.83;;
13743;SDS011;6943;52.368;9.966;2023-02-11T16:41:33;38.77;;;24.50;;
13743;SDS011;6943;52.368;9.966;2023-02-11T16:43:58;43.80;;;25.33;;
13743;SDS011;6943;52.368;9.966;2023-02-11T16:46:24;46.33;;;25.70;;
13743;SDS011;6943;52.368;9.966;2023-02-11T16:48:51;41.33;;;26.07;;
13743;SDS011;6943;52.368;9.966;2023-02-11T16:51:17;42.90;;;25.57;;
13743;SDS011;6943;52.368;9.966;2023-02-11T16:53:43;38.63;;;25.33;;